Olympia, Kentucky
Current Conditions -  °F | °C
As of 5:10 PM on Monday 26 Jan 2015 (Local Time) from KSYM Reporting Station
Overcast Overcast  
Wind Chill: -8°   Ceiling: 1400
Heat Index: -3°   Visibility: 10mi
Dew Point: -6°   Wind: 8mph
Humidity: 80%   Direction: 310°NW
Pressure: 29.91"   Gusts: 14mph
Location:  38.1°N, 83.7°W
Report Text: KSYM 262210Z AUTO 31007G12KT 10SM OVC014 M03/M06 A2991 RMK AO2
Loading
Personal Weather Stations






























Interactive Weather Map New forecast layout! Learn more

10-Day Weather Forecast

Advertisements
Track Severe Weather on mobile